Airport details for: LFMN (France)

Metar

LFMN 152100Z 30006KT 260V330 CAVOK 10/M03 Q1000 NOSIG

General details

ICAO: LFMN
IATA: NCE
Name (city): Nice/Cote Dazur
Major:
Country: France
vACC: vACC France
Description:
Scenery links:
FS9 scenery:
FSX/P3D scenery:
XP scenery:
Elevation: 12 ft.
Transition altitude: 5000 ft.
MSA: 9700 ft.
Latitude: 43.665278
Longitude: 7.215
LFMN Charts
LFMN Notams
LFMN Online stations

Runways

Number Course Length Elevation Lat Lon ILS ILS freq ILS FAC GP
04L 44° 8432ft / 2570 m 10ft 43.651808 7.204042 109.95 44° 3.0°
04R 44° 9711ft / 2960 m 10ft 43.646739 7.202494 110.7 42° 3.0°
22L 224° 9711ft / 2960 m 12ft 43.665608 7.228444 - - 3.0°
22R 224° 8432ft / 2570 m 10ft 43.668178 7.226556 - - 3.0°